sensor_id;sensor_type;location;lat;lon;timestamp;temperature;humidity
20714;DHT22;10518;50.742;4.226;2023-05-14T00:00:14;14.50;99.90
20714;DHT22;10518;50.742;4.226;2023-05-14T00:02:41;14.50;99.90
20714;DHT22;10518;50.742;4.226;2023-05-14T00:05:07;14.40;99.90
20714;DHT22;10518;50.742;4.226;2023-05-14T00:07:33;14.30;99.90
20714;DHT22;10518;50.742;4.226;2023-05-14T00:09:59;14.40;99.90
20714;DHT22;10518;50.742;4.226;2023-05-14T00:12:25;14.40;99.90
20714;DHT22;10518;50.742;4.226;2023-05-14T00:14:51;14.40;99.90
20714;DHT22;10518;50.742;4.226;2023-05-14T00:17:17;14.50;99.90
20714;DHT22;10518;50.742;4.226;2023-05-14T00:19:43;14.60;99.90
20714;DHT22;10518;50.742;4.226;2023-05-14T00:22:08;14.50;99.90
20714;DHT22;10518;50.742;4.226;2023-05-14T00:24:35;14.30;99.90
20714;DHT22;10518;50.742;4.226;2023-05-14T00:27:01;14.40;99.90
20714;DHT22;10518;50.742;4.226;2023-05-14T00:29:26;14.40;99.90
20714;DHT22;10518;50.742;4.226;2023-05-14T00:31:52;14.60;99.90
20714;DHT22;10518;50.742;4.226;2023-05-14T00:34:17;14.50;99.90
20714;DHT22;10518;50.742;4.226;2023-05-14T00:36:43;14.40;99.90
20714;DHT22;10518;50.742;4.226;2023-05-14T00:39:09;14.20;99.90
20714;DHT22;10518;50.742;4.226;2023-05-14T00:41:34;14.00;99.90
20714;DHT22;10518;50.742;4.226;2023-05-14T00:44:02;14.00;99.90
20714;DHT22;10518;50.742;4.226;2023-05-14T00:46:27;14.20;99.90
20714;DHT22;10518;50.742;4.226;2023-05-14T00:48:53;14.00;99.90
20714;DHT22;10518;50.742;4.226;2023-05-14T00:51:20;14.10;99.90
20714;DHT22;10518;50.742;4.226;2023-05-14T00:53:46;14.10;99.90
20714;DHT22;10518;50.742;4.226;2023-05-14T00:56:13;14.00;99.90
20714;DHT22;10518;50.742;4.226;2023-05-14T00:58:39;14.20;99.90
20714;DHT22;10518;50.742;4.226;2023-05-14T01:01:05;14.40;99.90
20714;DHT22;10518;50.742;4.226;2023-05-14T01:03:31;14.50;99.90
20714;DHT22;10518;50.742;4.226;2023-05-14T01:06:17;14.30;99.90
20714;DHT22;10518;50.742;4.226;2023-05-14T01:11:51;14.10;99.90
20714;DHT22;10518;50.742;4.226;2023-05-14T01:16:53;14.10;99.90
20714;DHT22;10518;50.742;4.226;2023-05-14T01:19:28;14.10;99.90
20714;DHT22;10518;50.742;4.226;2023-05-14T01:21:56;13.90;99.90
20714;DHT22;10518;50.742;4.226;2023-05-14T01:24:22;14.00;99.90
20714;DHT22;10518;50.742;4.226;2023-05-14T01:26:47;14.10;99.90
20714;DHT22;10518;50.742;4.226;2023-05-14T01:29:18;14.00;99.90
20714;DHT22;10518;50.742;4.226;2023-05-14T01:31:46;14.00;99.90
20714;DHT22;10518;50.742;4.226;2023-05-14T01:34:13;14.10;99.90
20714;DHT22;10518;50.742;4.226;2023-05-14T01:36:41;14.00;99.90
20714;DHT22;10518;50.742;4.226;2023-05-14T01:39:07;14.00;99.90
20714;DHT22;10518;50.742;4.226;2023-05-14T01:41:35;14.20;99.90
20714;DHT22;10518;50.742;4.226;2023-05-14T01:44:03;14.20;99.90
20714;DHT22;10518;50.742;4.226;2023-05-14T01:46:32;14.10;99.90
20714;DHT22;10518;50.742;4.226;2023-05-14T01:48:58;14.10;99.90
20714;DHT22;10518;50.742;4.226;2023-05-14T01:51:24;14.00;99.90
20714;DHT22;10518;50.742;4.226;2023-05-14T01:53:50;14.10;99.90
20714;DHT22;10518;50.742;4.226;2023-05-14T01:56:17;13.80;99.90
20714;DHT22;10518;50.742;4.226;2023-05-14T01:58:42;13.90;99.90
20714;DHT22;10518;50.742;4.226;2023-05-14T02:01:08;13.80;99.90
20714;DHT22;10518;50.742;4.226;2023-05-14T02:03:33;13.70;99.90
20714;DHT22;10518;50.742;4.226;2023-05-14T02:05:59;13.80;99.90
20714;DHT22;10518;50.742;4.226;2023-05-14T02:08:26;14.10;99.90
20714;DHT22;10518;50.742;4.226;2023-05-14T02:10:51;14.30;99.90
20714;DHT22;10518;50.742;4.226;2023-05-14T02:13:17;14.30;99.90
20714;DHT22;10518;50.742;4.226;2023-05-14T02:15:43;14.20;99.90
20714;DHT22;10518;50.742;4.226;2023-05-14T02:18:09;14.00;99.90
20714;DHT22;10518;50.742;4.226;2023-05-14T02:20:34;14.20;99.90
20714;DHT22;10518;50.742;4.226;2023-05-14T02:23:00;13.80;99.90
20714;DHT22;10518;50.742;4.226;2023-05-14T02:25:25;13.90;99.90
20714;DHT22;10518;50.742;4.226;2023-05-14T02:27:51;13.90;99.90
20714;DHT22;10518;50.742;4.226;2023-05-14T02:30:17;13.90;99.90
20714;DHT22;10518;50.742;4.226;2023-05-14T02:32:42;14.20;99.90
20714;DHT22;10518;50.742;4.226;2023-05-14T02:35:08;14.00;99.90
20714;DHT22;10518;50.742;4.226;2023-05-14T02:37:34;13.90;99.90
20714;DHT22;10518;50.742;4.226;2023-05-14T02:39:59;14.00;99.90
20714;DHT22;10518;50.742;4.226;2023-05-14T02:42:25;14.00;99.90
20714;DHT22;10518;50.742;4.226;2023-05-14T02:44:51;14.20;99.90
20714;DHT22;10518;50.742;4.226;2023-05-14T02:47:17;14.10;99.90
20714;DHT22;10518;50.742;4.226;2023-05-14T02:49:43;13.60;99.90
20714;DHT22;10518;50.742;4.226;2023-05-14T02:52:08;14.00;99.90
20714;DHT22;10518;50.742;4.226;2023-05-14T02:54:34;13.90;99.90
20714;DHT22;10518;50.742;4.226;2023-05-14T02:57:00;13.80;99.90
20714;DHT22;10518;50.742;4.226;2023-05-14T02:59:26;13.70;99.90
20714;DHT22;10518;50.742;4.226;2023-05-14T03:01:52;13.70;99.90
20714;DHT22;10518;50.742;4.226;2023-05-14T03:04:17;13.80;99.90
20714;DHT22;10518;50.742;4.226;2023-05-14T03:06:43;13.90;99.90
20714;DHT22;10518;50.742;4.226;2023-05-14T03:09:08;13.90;99.90
20714;DHT22;10518;50.742;4.226;2023-05-14T03:11:34;13.90;99.90
20714;DHT22;10518;50.742;4.226;2023-05-14T03:14:00;14.00;99.90
20714;DHT22;10518;50.742;4.226;2023-05-14T03:16:26;14.20;99.90
20714;DHT22;10518;50.742;4.226;2023-05-14T03:18:51;14.10;99.90
20714;DHT22;10518;50.742;4.226;2023-05-14T03:21:17;14.20;99.90
20714;DHT22;10518;50.742;4.226;2023-05-14T03:23:43;14.30;99.90
20714;DHT22;10518;50.742;4.226;2023-05-14T03:26:08;14.10;99.90
20714;DHT22;10518;50.742;4.226;2023-05-14T03:28:34;14.00;99.90
20714;DHT22;10518;50.742;4.226;2023-05-14T03:31:00;14.10;99.90
20714;DHT22;10518;50.742;4.226;2023-05-14T03:33:25;14.10;99.90
20714;DHT22;10518;50.742;4.226;2023-05-14T03:35:51;13.90;99.90
20714;DHT22;10518;50.742;4.226;2023-05-14T03:38:17;13.80;99.90
20714;DHT22;10518;50.742;4.226;2023-05-14T03:40:43;13.80;99.90
20714;DHT22;10518;50.742;4.226;2023-05-14T03:43:09;13.90;99.90
20714;DHT22;10518;50.742;4.226;2023-05-14T03:45:35;13.80;99.90
20714;DHT22;10518;50.742;4.226;2023-05-14T03:48:01;13.90;99.90
20714;DHT22;10518;50.742;4.226;2023-05-14T03:50:27;14.00;99.90
20714;DHT22;10518;50.742;4.226;2023-05-14T03:52:53;14.00;99.90
20714;DHT22;10518;50.742;4.226;2023-05-14T03:55:19;14.10;99.90
20714;DHT22;10518;50.742;4.226;2023-05-14T03:57:46;14.00;99.90
20714;DHT22;10518;50.742;4.226;2023-05-14T04:00:12;13.80;99.90
20714;DHT22;10518;50.742;4.226;2023-05-14T04:02:38;13.80;99.90
20714;DHT22;10518;50.742;4.226;2023-05-14T04:05:04;14.00;99.90
20714;DHT22;10518;50.742;4.226;2023-05-14T04:07:29;13.90;99.90
20714;DHT22;10518;50.742;4.226;2023-05-14T04:09:55;13.90;99.90
20714;DHT22;10518;50.742;4.226;2023-05-14T04:12:20;13.90;99.90
20714;DHT22;10518;50.742;4.226;2023-05-14T04:14:46;14.00;99.90
20714;DHT22;10518;50.742;4.226;2023-05-14T04:17:12;14.00;99.90
20714;DHT22;10518;50.742;4.226;2023-05-14T04:19:37;13.90;99.90
20714;DHT22;10518;50.742;4.226;2023-05-14T04:22:04;14.00;99.90
20714;DHT22;10518;50.742;4.226;2023-05-14T04:24:30;14.00;99.90
20714;DHT22;10518;50.742;4.226;2023-05-14T04:26:56;14.20;99.90
20714;DHT22;10518;50.742;4.226;2023-05-14T04:29:21;14.00;99.90
20714;DHT22;10518;50.742;4.226;2023-05-14T04:31:48;13.90;99.90
20714;DHT22;10518;50.742;4.226;2023-05-14T04:34:13;14.20;99.90
20714;DHT22;10518;50.742;4.226;2023-05-14T04:36:39;14.20;99.90
20714;DHT22;10518;50.742;4.226;2023-05-14T04:39:05;14.00;99.90
20714;DHT22;10518;50.742;4.226;2023-05-14T04:41:31;14.10;99.90
20714;DHT22;10518;50.742;4.226;2023-05-14T04:43:59;14.10;99.90
20714;DHT22;10518;50.742;4.226;2023-05-14T04:46:26;14.20;99.90
20714;DHT22;10518;50.742;4.226;2023-05-14T04:48:51;14.20;99.90
20714;DHT22;10518;50.742;4.226;2023-05-14T04:51:17;14.10;99.90
20714;DHT22;10518;50.742;4.226;2023-05-14T04:53:43;14.00;99.90
20714;DHT22;10518;50.742;4.226;2023-05-14T04:56:08;14.30;99.90
20714;DHT22;10518;50.742;4.226;2023-05-14T04:58:34;14.40;99.90
20714;DHT22;10518;50.742;4.226;2023-05-14T05:01:00;14.20;99.90
20714;DHT22;10518;50.742;4.226;2023-05-14T05:03:27;14.30;99.90
20714;DHT22;10518;50.742;4.226;2023-05-14T05:05:52;13.90;99.90
20714;DHT22;10518;50.742;4.226;2023-05-14T05:08:18;14.00;99.90
20714;DHT22;10518;50.742;4.226;2023-05-14T05:10:44;14.00;99.90
20714;DHT22;10518;50.742;4.226;2023-05-14T05:13:10;14.10;99.90
20714;DHT22;10518;50.742;4.226;2023-05-14T05:15:35;14.20;99.90
20714;DHT22;10518;50.742;4.226;2023-05-14T05:18:01;14.50;99.90
20714;DHT22;10518;50.742;4.226;2023-05-14T05:20:26;14.40;99.90
20714;DHT22;10518;50.742;4.226;2023-05-14T05:22:52;14.30;99.90
20714;DHT22;10518;50.742;4.226;2023-05-14T05:25:18;14.20;99.90
20714;DHT22;10518;50.742;4.226;2023-05-14T05:27:44;14.30;99.90
20714;DHT22;10518;50.742;4.226;2023-05-14T05:30:10;14.40;99.90
20714;DHT22;10518;50.742;4.226;2023-05-14T05:32:36;14.50;99.90
20714;DHT22;10518;50.742;4.226;2023-05-14T05:35:02;14.80;99.90
20714;DHT22;10518;50.742;4.226;2023-05-14T05:37:28;14.70;99.90
20714;DHT22;10518;50.742;4.226;2023-05-14T05:39:54;14.60;99.90
20714;DHT22;10518;50.742;4.226;2023-05-14T05:42:20;14.80;99.90
20714;DHT22;10518;50.742;4.226;2023-05-14T05:44:46;14.30;99.90
20714;DHT22;10518;50.742;4.226;2023-05-14T05:47:12;14.10;99.90
20714;DHT22;10518;50.742;4.226;2023-05-14T05:49:37;14.10;99.90
20714;DHT22;10518;50.742;4.226;2023-05-14T05:52:03;14.10;99.90
20714;DHT22;10518;50.742;4.226;2023-05-14T05:54:29;14.20;99.90
20714;DHT22;10518;50.742;4.226;2023-05-14T05:56:57;14.50;99.90
20714;DHT22;10518;50.742;4.226;2023-05-14T05:59:23;14.40;99.90
20714;DHT22;10518;50.742;4.226;2023-05-14T06:01:49;14.40;99.90
20714;DHT22;10518;50.742;4.226;2023-05-14T06:04:15;14.40;99.90
20714;DHT22;10518;50.742;4.226;2023-05-14T06:06:41;14.40;99.90
20714;DHT22;10518;50.742;4.226;2023-05-14T06:09:07;14.10;99.90
20714;DHT22;10518;50.742;4.226;2023-05-14T06:11:33;14.30;99.90
20714;DHT22;10518;50.742;4.226;2023-05-14T06:13:59;14.40;99.90
20714;DHT22;10518;50.742;4.226;2023-05-14T06:16:25;14.30;99.90
20714;DHT22;10518;50.742;4.226;2023-05-14T06:18:50;14.10;99.90
20714;DHT22;10518;50.742;4.226;2023-05-14T06:21:17;14.00;99.90
20714;DHT22;10518;50.742;4.226;2023-05-14T06:23:43;14.10;99.90
20714;DHT22;10518;50.742;4.226;2023-05-14T06:26:09;14.00;99.90
20714;DHT22;10518;50.742;4.226;2023-05-14T06:28:34;14.00;99.90
20714;DHT22;10518;50.742;4.226;2023-05-14T06:31:00;14.10;99.90
20714;DHT22;10518;50.742;4.226;2023-05-14T06:33:26;14.30;99.90
20714;DHT22;10518;50.742;4.226;2023-05-14T06:35:56;14.40;99.90
20714;DHT22;10518;50.742;4.226;2023-05-14T06:38:22;14.90;99.90
20714;DHT22;10518;50.742;4.226;2023-05-14T06:40:48;14.80;99.90
20714;DHT22;10518;50.742;4.226;2023-05-14T06:43:13;14.90;99.90
20714;DHT22;10518;50.742;4.226;2023-05-14T06:45:39;14.80;99.90
20714;DHT22;10518;50.742;4.226;2023-05-14T06:48:05;14.80;99.90
20714;DHT22;10518;50.742;4.226;2023-05-14T06:50:30;14.70;99.90
20714;DHT22;10518;50.742;4.226;2023-05-14T06:52:56;14.70;99.90
20714;DHT22;10518;50.742;4.226;2023-05-14T06:55:22;14.50;99.90
20714;DHT22;10518;50.742;4.226;2023-05-14T06:57:47;14.40;99.90
20714;DHT22;10518;50.742;4.226;2023-05-14T07:00:13;14.50;99.90
20714;DHT22;10518;50.742;4.226;2023-05-14T07:02:39;14.70;99.90
20714;DHT22;10518;50.742;4.226;2023-05-14T07:05:05;14.90;99.90
20714;DHT22;10518;50.742;4.226;2023-05-14T07:07:32;14.50;99.90
20714;DHT22;10518;50.742;4.226;2023-05-14T07:09:58;14.20;99.90
20714;DHT22;10518;50.742;4.226;2023-05-14T07:12:24;14.20;99.90
20714;DHT22;10518;50.742;4.226;2023-05-14T07:14:50;14.20;99.90
20714;DHT22;10518;50.742;4.226;2023-05-14T07:17:15;14.40;99.90
20714;DHT22;10518;50.742;4.226;2023-05-14T07:19:41;14.60;99.90
20714;DHT22;10518;50.742;4.226;2023-05-14T07:22:06;14.70;99.90
20714;DHT22;10518;50.742;4.226;2023-05-14T07:24:32;14.90;99.90
20714;DHT22;10518;50.742;4.226;2023-05-14T07:26:58;14.90;99.90
20714;DHT22;10518;50.742;4.226;2023-05-14T07:29:23;14.80;99.90
20714;DHT22;10518;50.742;4.226;2023-05-14T07:31:50;14.90;99.90
20714;DHT22;10518;50.742;4.226;2023-05-14T07:34:15;15.00;99.90
20714;DHT22;10518;50.742;4.226;2023-05-14T07:36:41;15.00;99.90
20714;DHT22;10518;50.742;4.226;2023-05-14T07:39:07;14.80;99.90
20714;DHT22;10518;50.742;4.226;2023-05-14T07:41:33;14.70;99.90
20714;DHT22;10518;50.742;4.226;2023-05-14T07:43:58;14.70;99.90
20714;DHT22;10518;50.742;4.226;2023-05-14T07:46:24;14.90;99.90
20714;DHT22;10518;50.742;4.226;2023-05-14T07:48:50;15.20;99.90
20714;DHT22;10518;50.742;4.226;2023-05-14T07:51:16;15.30;99.90
20714;DHT22;10518;50.742;4.226;2023-05-14T07:53:41;15.00;99.90
20714;DHT22;10518;50.742;4.226;2023-05-14T07:56:07;15.30;99.90
20714;DHT22;10518;50.742;4.226;2023-05-14T07:58:33;15.20;99.90
20714;DHT22;10518;50.742;4.226;2023-05-14T08:00:59;14.90;99.90
20714;DHT22;10518;50.742;4.226;2023-05-14T08:03:25;14.70;99.90
20714;DHT22;10518;50.742;4.226;2023-05-14T08:05:51;15.00;99.90
20714;DHT22;10518;50.742;4.226;2023-05-14T08:08:17;15.60;99.90
20714;DHT22;10518;50.742;4.226;2023-05-14T08:10:42;15.80;99.90
20714;DHT22;10518;50.742;4.226;2023-05-14T08:13:08;15.80;99.90
20714;DHT22;10518;50.742;4.226;2023-05-14T08:15:33;15.70;99.90
20714;DHT22;10518;50.742;4.226;2023-05-14T08:17:59;15.70;99.90
20714;DHT22;10518;50.742;4.226;2023-05-14T08:20:29;16.00;99.90
20714;DHT22;10518;50.742;4.226;2023-05-14T08:22:55;16.30;99.90
20714;DHT22;10518;50.742;4.226;2023-05-14T08:25:22;16.10;99.90
20714;DHT22;10518;50.742;4.226;2023-05-14T08:27:48;16.10;99.90
20714;DHT22;10518;50.742;4.226;2023-05-14T08:30:14;16.30;99.90
20714;DHT22;10518;50.742;4.226;2023-05-14T08:32:40;16.20;99.90
20714;DHT22;10518;50.742;4.226;2023-05-14T08:35:06;16.20;99.90
20714;DHT22;10518;50.742;4.226;2023-05-14T08:37:32;16.30;99.90
20714;DHT22;10518;50.742;4.226;2023-05-14T08:39:58;16.50;99.90
20714;DHT22;10518;50.742;4.226;2023-05-14T08:42:24;16.70;99.90
20714;DHT22;10518;50.742;4.226;2023-05-14T08:45:01;16.70;99.90
20714;DHT22;10518;50.742;4.226;2023-05-14T08:47:29;16.70;99.90
20714;DHT22;10518;50.742;4.226;2023-05-14T08:50:05;16.80;99.90
20714;DHT22;10518;50.742;4.226;2023-05-14T08:52:33;16.20;99.90
20714;DHT22;10518;50.742;4.226;2023-05-14T08:55:01;16.60;99.90
20714;DHT22;10518;50.742;4.226;2023-05-14T08:57:29;16.90;99.90
20714;DHT22;10518;50.742;4.226;2023-05-14T08:59:55;17.00;99.90
20714;DHT22;10518;50.742;4.226;2023-05-14T09:02:27;17.30;99.90
20714;DHT22;10518;50.742;4.226;2023-05-14T09:04:58;17.10;99.90
20714;DHT22;10518;50.742;4.226;2023-05-14T09:07:24;17.10;99.90
20714;DHT22;10518;50.742;4.226;2023-05-14T09:09:51;16.90;99.90
20714;DHT22;10518;50.742;4.226;2023-05-14T09:12:16;17.10;99.90
20714;DHT22;10518;50.742;4.226;2023-05-14T09:14:43;16.50;99.90
20714;DHT22;10518;50.742;4.226;2023-05-14T09:17:09;16.60;99.90
20714;DHT22;10518;50.742;4.226;2023-05-14T09:19:42;16.60;99.90
20714;DHT22;10518;50.742;4.226;2023-05-14T09:22:13;16.90;99.90
20714;DHT22;10518;50.742;4.226;2023-05-14T09:24:39;17.40;99.90
20714;DHT22;10518;50.742;4.226;2023-05-14T09:27:06;17.70;99.90
20714;DHT22;10518;50.742;4.226;2023-05-14T09:29:32;17.50;99.90
20714;DHT22;10518;50.742;4.226;2023-05-14T09:31:58;17.70;99.90
20714;DHT22;10518;50.742;4.226;2023-05-14T09:34:29;17.60;99.90
20714;DHT22;10518;50.742;4.226;2023-05-14T09:39:22;17.20;99.90
20714;DHT22;10518;50.742;4.226;2023-05-14T09:41:48;17.40;99.90
20714;DHT22;10518;50.742;4.226;2023-05-14T09:44:16;17.60;99.90
20714;DHT22;10518;50.742;4.226;2023-05-14T09:46:42;18.10;99.90
20714;DHT22;10518;50.742;4.226;2023-05-14T09:49:08;18.40;99.90
20714;DHT22;10518;50.742;4.226;2023-05-14T09:51:33;18.80;99.90
20714;DHT22;10518;50.742;4.226;2023-05-14T09:54:03;18.90;99.90
20714;DHT22;10518;50.742;4.226;2023-05-14T09:56:29;19.30;99.90
20714;DHT22;10518;50.742;4.226;2023-05-14T09:58:55;19.40;99.90
20714;DHT22;10518;50.742;4.226;2023-05-14T10:01:21;19.50;99.90
20714;DHT22;10518;50.742;4.226;2023-05-14T10:03:48;19.40;99.90
20714;DHT22;10518;50.742;4.226;2023-05-14T10:06:15;19.50;99.90
20714;DHT22;10518;50.742;4.226;2023-05-14T10:08:44;19.50;99.90
20714;DHT22;10518;50.742;4.226;2023-05-14T10:11:14;19.60;99.90
20714;DHT22;10518;50.742;4.226;2023-05-14T10:13:44;19.80;99.90
20714;DHT22;10518;50.742;4.226;2023-05-14T10:16:16;20.10;99.90
20714;DHT22;10518;50.742;4.226;2023-05-14T10:18:45;20.40;99.90
20714;DHT22;10518;50.742;4.226;2023-05-14T10:21:13;20.30;99.90
20714;DHT22;10518;50.742;4.226;2023-05-14T10:23:40;20.00;99.90
20714;DHT22;10518;50.742;4.226;2023-05-14T10:26:06;20.20;99.90
20714;DHT22;10518;50.742;4.226;2023-05-14T10:28:33;20.20;99.90
20714;DHT22;10518;50.742;4.226;2023-05-14T10:30:59;20.00;99.90
20714;DHT22;10518;50.742;4.226;2023-05-14T10:33:25;19.80;99.90
20714;DHT22;10518;50.742;4.226;2023-05-14T10:36:03;19.90;99.90
20714;DHT22;10518;50.742;4.226;2023-05-14T10:38:36;19.80;99.90
20714;DHT22;10518;50.742;4.226;2023-05-14T10:41:09;19.90;99.90
20714;DHT22;10518;50.742;4.226;2023-05-14T10:43:39;20.00;99.90
20714;DHT22;10518;50.742;4.226;2023-05-14T10:46:07;20.00;99.90
20714;DHT22;10518;50.742;4.226;2023-05-14T10:48:35;20.20;99.90
20714;DHT22;10518;50.742;4.226;2023-05-14T10:51:01;20.20;99.90
20714;DHT22;10518;50.742;4.226;2023-05-14T10:53:37;19.90;99.90
20714;DHT22;10518;50.742;4.226;2023-05-14T10:56:11;19.80;99.90
20714;DHT22;10518;50.742;4.226;2023-05-14T10:58:39;19.60;99.90
20714;DHT22;10518;50.742;4.226;2023-05-14T11:01:07;19.40;99.90
20714;DHT22;10518;50.742;4.226;2023-05-14T11:03:39;19.00;99.90
20714;DHT22;10518;50.742;4.226;2023-05-14T11:06:05;18.80;99.90
20714;DHT22;10518;50.742;4.226;2023-05-14T11:08:31;19.20;99.90
20714;DHT22;10518;50.742;4.226;2023-05-14T11:10:57;19.40;99.90
20714;DHT22;10518;50.742;4.226;2023-05-14T11:13:25;19.30;99.90
20714;DHT22;10518;50.742;4.226;2023-05-14T11:15:51;19.40;99.90
20714;DHT22;10518;50.742;4.226;2023-05-14T11:18:27;19.20;99.90
20714;DHT22;10518;50.742;4.226;2023-05-14T11:20:57;19.30;99.90
20714;DHT22;10518;50.742;4.226;2023-05-14T11:23:23;19.30;99.90
20714;DHT22;10518;50.742;4.226;2023-05-14T11:25:54;19.40;99.90
20714;DHT22;10518;50.742;4.226;2023-05-14T11:28:24;19.70;99.90
20714;DHT22;10518;50.742;4.226;2023-05-14T11:30:51;19.60;99.90
20714;DHT22;10518;50.742;4.226;2023-05-14T11:33:18;19.10;99.90
20714;DHT22;10518;50.742;4.226;2023-05-14T11:35:44;19.20;99.90
20714;DHT22;10518;50.742;4.226;2023-05-14T11:38:18;19.40;99.90
20714;DHT22;10518;50.742;4.226;2023-05-14T11:40:54;19.60;99.90
20714;DHT22;10518;50.742;4.226;2023-05-14T11:43:21;19.80;99.90
20714;DHT22;10518;50.742;4.226;2023-05-14T11:45:51;20.00;99.90
20714;DHT22;10518;50.742;4.226;2023-05-14T11:48:17;20.10;99.90
20714;DHT22;10518;50.742;4.226;2023-05-14T11:50:50;20.20;99.90
20714;DHT22;10518;50.742;4.226;2023-05-14T11:53:24;20.00;99.90
20714;DHT22;10518;50.742;4.226;2023-05-14T11:55:52;19.90;99.90
20714;DHT22;10518;50.742;4.226;2023-05-14T11:58:18;19.90;99.90
20714;DHT22;10518;50.742;4.226;2023-05-14T12:00:44;20.10;99.90
20714;DHT22;10518;50.742;4.226;2023-05-14T12:03:10;20.00;99.90
20714;DHT22;10518;50.742;4.226;2023-05-14T12:05:37;19.90;99.90
20714;DHT22;10518;50.742;4.226;2023-05-14T12:08:19;19.80;99.90
20714;DHT22;10518;50.742;4.226;2023-05-14T12:10:45;19.80;99.90
20714;DHT22;10518;50.742;4.226;2023-05-14T12:13:14;19.60;99.90
20714;DHT22;10518;50.742;4.226;2023-05-14T12:15:43;19.20;99.90
20714;DHT22;10518;50.742;4.226;2023-05-14T12:18:08;19.60;99.90
20714;DHT22;10518;50.742;4.226;2023-05-14T12:20:34;19.60;99.90
20714;DHT22;10518;50.742;4.226;2023-05-14T12:23:00;19.90;99.90
20714;DHT22;10518;50.742;4.226;2023-05-14T12:25:25;20.00;99.90
20714;DHT22;10518;50.742;4.226;2023-05-14T12:27:51;19.90;99.90
20714;DHT22;10518;50.742;4.226;2023-05-14T12:30:17;19.90;99.90
20714;DHT22;10518;50.742;4.226;2023-05-14T12:32:42;19.80;99.90
20714;DHT22;10518;50.742;4.226;2023-05-14T12:35:08;19.70;99.90
20714;DHT22;10518;50.742;4.226;2023-05-14T12:37:34;19.90;99.90
20714;DHT22;10518;50.742;4.226;2023-05-14T12:40:03;19.90;99.90
20714;DHT22;10518;50.742;4.226;2023-05-14T12:42:29;20.00;99.90
20714;DHT22;10518;50.742;4.226;2023-05-14T12:44:55;19.80;99.90
20714;DHT22;10518;50.742;4.226;2023-05-14T12:47:21;20.00;99.90
20714;DHT22;10518;50.742;4.226;2023-05-14T12:49:46;20.40;99.90
20714;DHT22;10518;50.742;4.226;2023-05-14T12:52:12;20.60;99.90
20714;DHT22;10518;50.742;4.226;2023-05-14T12:54:37;20.60;99.90
20714;DHT22;10518;50.742;4.226;2023-05-14T12:57:04;20.50;99.90
20714;DHT22;10518;50.742;4.226;2023-05-14T12:59:30;20.70;99.90
20714;DHT22;10518;50.742;4.226;2023-05-14T13:01:56;20.40;99.90
20714;DHT22;10518;50.742;4.226;2023-05-14T13:04:21;20.50;99.90
20714;DHT22;10518;50.742;4.226;2023-05-14T13:06:47;20.40;99.90
20714;DHT22;10518;50.742;4.226;2023-05-14T13:09:13;20.30;99.90
20714;DHT22;10518;50.742;4.226;2023-05-14T13:11:38;20.30;99.90
20714;DHT22;10518;50.742;4.226;2023-05-14T13:14:04;20.30;99.90
20714;DHT22;10518;50.742;4.226;2023-05-14T13:16:29;20.20;99.90
20714;DHT22;10518;50.742;4.226;2023-05-14T13:18:55;20.40;99.90
20714;DHT22;10518;50.742;4.226;2023-05-14T13:21:21;20.70;99.90
20714;DHT22;10518;50.742;4.226;2023-05-14T13:23:47;20.70;99.90
20714;DHT22;10518;50.742;4.226;2023-05-14T13:26:13;20.80;99.90
20714;DHT22;10518;50.742;4.226;2023-05-14T13:28:39;20.90;99.90
20714;DHT22;10518;50.742;4.226;2023-05-14T13:31:07;21.00;99.90
20714;DHT22;10518;50.742;4.226;2023-05-14T13:33:43;20.90;99.90
20714;DHT22;10518;50.742;4.226;2023-05-14T13:36:10;21.10;99.90
20714;DHT22;10518;50.742;4.226;2023-05-14T13:38:36;21.30;99.90
20714;DHT22;10518;50.742;4.226;2023-05-14T13:41:02;21.30;99.90
20714;DHT22;10518;50.742;4.226;2023-05-14T13:43:32;21.30;99.90
20714;DHT22;10518;50.742;4.226;2023-05-14T13:45:58;21.30;99.90
20714;DHT22;10518;50.742;4.226;2023-05-14T13:48:25;21.50;99.90
20714;DHT22;10518;50.742;4.226;2023-05-14T13:50:52;21.60;99.90
20714;DHT22;10518;50.742;4.226;2023-05-14T13:53:19;21.60;99.90
20714;DHT22;10518;50.742;4.226;2023-05-14T13:55:45;21.60;99.90
20714;DHT22;10518;50.742;4.226;2023-05-14T13:58:11;21.80;99.90
20714;DHT22;10518;50.742;4.226;2023-05-14T14:00:36;21.70;99.90
20714;DHT22;10518;50.742;4.226;2023-05-14T14:03:02;21.80;99.90
20714;DHT22;10518;50.742;4.226;2023-05-14T14:05:28;21.70;99.90
20714;DHT22;10518;50.742;4.226;2023-05-14T14:07:54;21.80;99.90
20714;DHT22;10518;50.742;4.226;2023-05-14T14:10:20;21.70;99.90
20714;DHT22;10518;50.742;4.226;2023-05-14T14:12:46;21.80;99.90
20714;DHT22;10518;50.742;4.226;2023-05-14T14:15:12;22.00;99.90
20714;DHT22;10518;50.742;4.226;2023-05-14T14:17:38;22.20;99.90
20714;DHT22;10518;50.742;4.226;2023-05-14T14:20:06;21.90;99.90
20714;DHT22;10518;50.742;4.226;2023-05-14T14:22:32;21.90;99.90
20714;DHT22;10518;50.742;4.226;2023-05-14T14:24:58;22.20;99.90
20714;DHT22;10518;50.742;4.226;2023-05-14T14:27:24;22.50;99.90
20714;DHT22;10518;50.742;4.226;2023-05-14T14:29:50;22.60;99.90
20714;DHT22;10518;50.742;4.226;2023-05-14T14:32:15;22.70;99.90
20714;DHT22;10518;50.742;4.226;2023-05-14T14:34:41;22.70;99.90
20714;DHT22;10518;50.742;4.226;2023-05-14T14:37:07;22.90;99.90
20714;DHT22;10518;50.742;4.226;2023-05-14T14:39:32;23.00;99.90
20714;DHT22;10518;50.742;4.226;2023-05-14T14:41:58;23.00;99.90
20714;DHT22;10518;50.742;4.226;2023-05-14T14:44:24;23.10;99.90
20714;DHT22;10518;50.742;4.226;2023-05-14T14:46:49;23.10;99.90
20714;DHT22;10518;50.742;4.226;2023-05-14T14:49:15;23.20;99.90
20714;DHT22;10518;50.742;4.226;2023-05-14T14:51:40;23.10;99.90
20714;DHT22;10518;50.742;4.226;2023-05-14T14:54:06;23.10;99.90
20714;DHT22;10518;50.742;4.226;2023-05-14T14:56:32;23.30;99.90
20714;DHT22;10518;50.742;4.226;2023-05-14T14:58:58;23.30;99.90
20714;DHT22;10518;50.742;4.226;2023-05-14T15:01:24;23.50;99.90
20714;DHT22;10518;50.742;4.226;2023-05-14T15:03:49;22.90;99.90
20714;DHT22;10518;50.742;4.226;2023-05-14T15:06:15;22.80;99.90
20714;DHT22;10518;50.742;4.226;2023-05-14T15:08:40;22.50;99.90
20714;DHT22;10518;50.742;4.226;2023-05-14T15:11:07;22.20;99.90
20714;DHT22;10518;50.742;4.226;2023-05-14T15:13:32;22.30;99.90
20714;DHT22;10518;50.742;4.226;2023-05-14T15:15:58;22.50;99.90
20714;DHT22;10518;50.742;4.226;2023-05-14T15:18:24;22.30;99.90
20714;DHT22;10518;50.742;4.226;2023-05-14T15:20:50;22.30;99.90
20714;DHT22;10518;50.742;4.226;2023-05-14T15:23:17;22.30;99.90
20714;DHT22;10518;50.742;4.226;2023-05-14T15:25:43;22.50;99.90
20714;DHT22;10518;50.742;4.226;2023-05-14T15:28:08;22.60;99.90
20714;DHT22;10518;50.742;4.226;2023-05-14T15:30:34;22.50;99.90
20714;DHT22;10518;50.742;4.226;2023-05-14T15:33:00;22.40;99.90